Main page
METAR-TAF:

METAR-TAF

Airports :

Liepāja International Airport

Liepāja, Latvia

latitude: 56-31N, longitude: 021-05E, elevation: 5 m

Current weather observation

The report was made 32 minutes ago, at 22:20 UTC
Wind 9 kt from the East/Northeast
Temperature -1°C
Humidity 93%
Pressure 1006 hPa
Visibility 10 km or more

METAR: EVLA 042220Z AUTO 06009KT 9999 BKN010/// OVC044/// M01/M02 Q1006

Time: 00:52 (22:52 UTC)

Forecast

The report was made 2 hours and 49 minutes ago, at 20:03 UTC
Forecast valid from 04 at 21 UTC to 05 at 21 UTC
Wind 7 kt from the East/Southeast
Visibility: 8000 m
Overcast at a height of 500 ft
Becoming
from 04 at 21 UTC to 04 at 23 UTC
Overcast at a height of 1200 ft
Becoming
from 05 at 06 UTC to 05 at 08 UTC
Broken clouds at a height of 2000 ft

TAF: EVLA 042003Z 0421/0521 12007KT 8000 OVC005 BECMG 0421/0423 OVC012 BECMG 0506/0508 BKN020

Weather observations and forecasts of more than 4000 airports (METAR and TAF reports).

The available stations are represented by yellow and red dots on the map.

Hover mouse over dot to see the name of the station.

Then click to see weather observations and forecasts.

To change the map : click on the green buttons with a black cross to zoom in, on the green button with a dash to zoom out, or on the green arrows for adjacent maps.


METAR-TAF: